Time;durP1;ratioP1;P1;durP2;ratioP2;P2;SDS_P1;SDS_P2;PMS_P1;PMS_P2;Temp;Humidity;BMP_temperature;BMP_pressure;BME280_temperature;BME280_humidity;BME280_pressure;Samples;Min_cycle;Max_cycle;Signal;HPM_P1;HPM_P2
2022/01/23 00:02:08;;;;;;;19.83;16.33;;;8.40;73.20;;;-142.21;100.00;112049.66;6276272;22;20484;-80
2022/01/23 00:04:36;;;;;;;22.97;17.63;;;8.40;73.00;;;-142.21;100.00;112049.66;6274817;22;20456;-79
2022/01/23 00:07:07;;;;;;;21.30;16.13;;;8.50;73.20;;;-142.21;100.00;112049.66;6274904;22;20418;-78
2022/01/23 00:09:38;;;;;;;19.93;15.50;;;8.50;73.20;;;-142.21;100.00;112049.66;6274694;22;20757;-79
2022/01/23 00:12:11;;;;;;;20.00;16.27;;;8.50;73.30;;;-142.21;100.00;112049.66;6274714;22;20856;-79
2022/01/23 00:17:24;;;;;;;22.47;16.23;;;8.60;72.80;;;-142.21;100.00;112049.66;6276802;22;20433;-78
2022/01/23 00:19:54;;;;;;;20.37;16.80;;;8.60;72.60;;;-142.21;100.00;112049.66;6276418;22;20908;-78
2022/01/23 00:22:25;;;;;;;20.83;16.20;;;8.60;72.30;;;-142.21;100.00;112049.66;6276711;22;20903;-79
2022/01/23 00:30:28;;;;;;;22.27;17.87;;;8.50;71.90;;;-142.21;100.00;112049.66;6277091;22;20382;-78
2022/01/23 00:32:57;;;;;;;20.53;16.07;;;8.50;72.10;;;-142.21;100.00;112049.66;6276013;22;20446;-79
2022/01/23 00:35:25;;;;;;;19.43;15.90;;;8.50;72.60;;;-142.21;100.00;112049.66;6276562;22;20453;-78
2022/01/23 00:37:53;;;;;;;20.57;15.80;;;8.50;72.50;;;-142.21;100.00;112049.66;6276166;22;20472;-78
2022/01/23 00:40:25;;;;;;;19.97;16.83;;;8.50;72.50;;;-142.21;100.00;112049.66;6276017;22;20418;-78
2022/01/23 00:42:55;;;;;;;21.70;18.13;;;8.50;72.50;;;-142.21;100.00;112049.66;6276554;22;20403;-79
2022/01/23 00:45:31;;;;;;;21.00;16.43;;;8.50;72.30;;;-142.21;100.00;112049.66;6276695;22;20914;-79
2022/01/23 00:48:06;;;;;;;20.60;16.40;;;8.50;72.20;;;-142.21;100.00;112049.66;6275883;22;20442;-79
2022/01/23 00:50:37;;;;;;;18.33;15.77;;;8.50;72.20;;;-142.21;100.00;112049.66;6277536;22;20406;-79
2022/01/23 00:53:09;;;;;;;20.58;17.52;;;8.50;73.00;;;-142.21;100.00;112049.66;6276756;22;20450;-79
2022/01/23 00:55:39;;;;;;;21.07;17.00;;;8.60;73.00;;;-142.21;100.00;112049.66;6276186;22;20212;-79
2022/01/23 00:58:07;;;;;;;19.57;16.37;;;8.50;72.30;;;-142.21;100.00;112049.66;6276768;22;20868;-79
2022/01/23 01:00:34;;;;;;;19.37;14.83;;;8.50;72.50;;;-142.21;100.00;112049.66;6277072;22;20411;-78
2022/01/23 01:03:02;;;;;;;22.00;16.73;;;8.60;72.50;;;-142.21;100.00;112049.66;6277480;22;20481;-77
2022/01/23 01:05:30;;;;;;;19.67;16.37;;;8.60;72.60;;;-142.21;100.00;112049.66;6279991;22;20411;-79
2022/01/23 01:08:01;;;;;;;19.50;16.80;;;8.60;72.70;;;-142.21;100.00;112049.66;6304662;22;20481;-81
2022/01/23 01:10:36;;;;;;;21.93;16.67;;;8.60;72.60;;;-142.21;100.00;112049.66;6300713;22;20407;-80
2022/01/23 01:13:06;;;;;;;21.10;17.33;;;8.60;72.30;;;-142.21;100.00;112049.66;6276380;22;20417;-78
2022/01/23 01:15:42;;;;;;;19.73;16.63;;;8.50;72.50;;;-142.21;100.00;112049.66;6276064;22;20450;-80
2022/01/23 01:32:00;;;;;;;21.23;17.45;;;8.40;72.80;;;-142.21;100.00;112049.66;6276805;22;20903;-80
2022/01/23 01:34:35;;;;;;;21.63;17.97;;;8.40;73.00;;;-142.21;100.00;112049.66;6276556;22;20267;-80
2022/01/23 01:37:04;;;;;;;22.50;17.53;;;8.40;73.20;;;-142.21;100.00;112049.66;6276387;22;20449;-80
2022/01/23 01:39:31;;;;;;;21.93;17.57;;;8.40;73.30;;;-142.21;100.00;112049.66;6275949;22;20435;-80
2022/01/23 01:41:59;;;;;;;22.77;17.30;;;8.40;73.20;;;-142.21;100.00;112049.66;6276307;22;20911;-79
2022/01/23 01:44:28;;;;;;;23.63;16.67;;;8.40;73.40;;;-142.21;100.00;112049.66;6276762;22;20473;-80
2022/01/23 01:46:55;;;;;;;19.23;17.07;;;8.40;73.40;;;-142.21;100.00;112049.66;6275135;22;20489;-79
2022/01/23 01:49:28;;;;;;;19.83;17.30;;;8.40;73.10;;;-142.21;100.00;112049.66;6276689;22;20411;-78
2022/01/23 01:51:57;;;;;;;20.30;16.70;;;8.50;73.20;;;-142.21;100.00;112049.66;6275441;22;20372;-78
2022/01/23 01:54:29;;;;;;;17.90;15.93;;;8.50;73.00;;;-142.21;100.00;112049.66;6275896;22;20489;-79
2022/01/23 01:57:05;;;;;;;21.73;17.53;;;8.60;72.90;;;-142.21;100.00;112049.66;6274593;22;20506;-79
2022/01/23 01:59:50;;;;;;;19.23;16.97;;;8.60;72.80;;;-142.21;100.00;112049.66;6275881;22;20399;-78
2022/01/23 02:08:25;;;;;;;22.23;17.17;;;8.70;72.30;;;-142.21;100.00;112049.66;6211325;23;20424;-79
2022/01/23 02:10:57;;;;;;;18.97;15.97;;;8.60;72.20;;;-142.21;100.00;112049.66;6255862;22;20422;-78
2022/01/23 02:13:32;;;;;;;21.37;16.83;;;8.70;72.60;;;-142.21;100.00;112049.66;6275765;22;20414;-78
2022/01/23 02:52:12;;;;;;;21.03;16.77;;;8.70;72.00;;;-142.21;100.00;112049.66;6275326;22;20425;-79
2022/01/23 02:54:52;;;;;;;21.07;16.63;;;8.60;72.00;;;-142.21;100.00;112049.66;6274578;22;21005;-78
2022/01/23 02:57:32;;;;;;;23.60;16.53;;;8.70;72.10;;;-142.21;100.00;112049.66;6275414;22;20403;-76
2022/01/23 03:00:00;;;;;;;21.03;16.40;;;8.70;72.10;;;-142.21;100.00;112049.66;6275851;22;20372;-77
2022/01/23 03:02:35;;;;;;;21.00;15.80;;;8.70;72.00;;;-142.21;100.00;112049.66;6275375;22;20430;-77
2022/01/23 03:05:05;;;;;;;23.10;17.57;;;8.80;72.10;;;-142.21;100.00;112049.66;6275484;22;20407;-78
2022/01/23 03:07:49;;;;;;;18.03;15.93;;;8.80;72.00;;;-142.21;100.00;112049.66;6274998;22;20501;-76
2022/01/23 03:10:22;;;;;;;19.27;16.30;;;8.90;71.80;;;-142.21;100.00;112049.66;6275294;22;20701;-77
2022/01/23 03:16:15;;;;;;;18.73;14.67;;;8.90;71.40;;;-142.21;100.00;112049.66;6151268;23;20810;-79
2022/01/23 03:24:23;;;;;;;19.20;15.50;;;8.90;71.20;;;-142.21;100.00;112049.66;6191767;22;20395;-78
2022/01/23 03:27:03;;;;;;;18.70;14.73;;;9.00;71.10;;;-142.21;100.00;112049.66;6275040;22;20453;-78
2022/01/23 03:29:50;;;;;;;17.67;15.40;;;9.00;71.10;;;-142.21;100.00;112049.66;6275219;22;20418;-78
2022/01/23 03:32:23;;;;;;;17.60;14.70;;;9.00;71.00;;;-142.21;100.00;112049.66;6274621;22;20421;-78
2022/01/23 03:34:51;;;;;;;18.87;15.23;;;9.00;71.00;;;-142.21;100.00;112049.66;6274738;22;20439;-77
2022/01/23 03:37:19;;;;;;;18.90;15.13;;;9.00;70.70;;;-142.21;100.00;112049.66;6274462;22;20473;-78
2022/01/23 03:39:47;;;;;;;17.40;15.10;;;9.00;71.00;;;-142.21;100.00;112049.66;6274769;22;20411;-77
2022/01/23 03:42:16;;;;;;;19.20;15.10;;;9.00;70.80;;;-142.21;100.00;112049.66;6274514;22;20472;-77
2022/01/23 03:44:57;;;;;;;18.43;14.77;;;9.10;70.70;;;-142.21;100.00;112049.66;6274822;22;20706;-77
2022/01/23 03:47:38;;;;;;;16.37;14.47;;;9.10;70.50;;;-142.21;100.00;112049.66;6274468;22;20489;-78
2022/01/23 03:50:07;;;;;;;17.70;15.13;;;9.10;70.50;;;-142.21;100.00;112049.66;6274311;22;20407;-77
2022/01/23 03:52:35;;;;;;;17.97;14.83;;;9.10;70.70;;;-142.21;100.00;112049.66;6273765;22;20417;-77
2022/01/23 03:55:05;;;;;;;19.70;15.80;;;9.10;70.50;;;-142.21;100.00;112049.66;6274157;22;20470;-77
2022/01/23 03:57:34;;;;;;;18.07;14.77;;;9.00;70.70;;;-142.21;100.00;112049.66;6274289;22;20410;-78
2022/01/23 04:00:02;;;;;;;18.30;14.87;;;9.00;70.70;;;-142.21;100.00;112049.66;6274614;22;20411;-79
2022/01/23 04:02:29;;;;;;;19.33;15.13;;;9.00;70.70;;;-142.21;100.00;112049.66;6274109;22;20438;-79
2022/01/23 04:04:56;;;;;;;16.67;14.47;;;8.90;70.70;;;-142.21;100.00;112049.66;6275322;22;20864;-79
2022/01/23 04:07:28;;;;;;;20.60;15.57;;;8.90;70.60;;;-142.21;100.00;112049.66;6275139;22;20443;-79
2022/01/23 04:09:56;;;;;;;19.63;15.13;;;8.90;70.90;;;-142.21;100.00;112049.66;6274916;22;20412;-79
2022/01/23 04:12:39;;;;;;;18.77;15.63;;;8.90;70.70;;;-142.21;100.00;112049.66;6275368;22;20415;-78
2022/01/23 04:15:18;;;;;;;19.30;15.40;;;8.80;70.70;;;-142.21;100.00;112049.66;6274813;22;20439;-78
2022/01/23 04:20:43;;;;;;;18.03;15.40;;;8.80;70.80;;;-142.21;100.00;112049.66;6273047;22;20407;-78
2022/01/23 04:32:05;;;;;;;17.20;14.87;;;8.90;70.70;;;-142.21;100.00;112049.66;6253390;22;20406;-79
2022/01/23 04:34:38;;;;;;;18.37;15.30;;;8.90;70.50;;;-142.21;100.00;112049.66;6274788;22;20376;-79
2022/01/23 04:45:26;;;;;;;20.00;15.40;;;9.00;70.50;;;-142.21;100.00;112049.66;6274202;22;20387;-77
2022/01/23 05:01:58;;;;;;;19.90;15.93;;;9.10;70.20;;;-142.21;100.00;112049.66;6263471;22;20403;-77
2022/01/23 05:04:31;;;;;;;20.47;15.97;;;9.10;70.00;;;-142.21;100.00;112049.66;6275648;22;20407;-79
2022/01/23 05:07:01;;;;;;;19.03;15.70;;;9.10;69.80;;;-142.21;100.00;112049.66;6276161;22;20902;-79
2022/01/23 05:09:30;;;;;;;18.90;15.93;;;9.10;70.40;;;-142.21;100.00;112049.66;6276048;22;20760;-79
2022/01/23 05:12:01;;;;;;;18.10;15.23;;;9.10;70.50;;;-142.21;100.00;112049.66;6277005;22;20411;-78
2022/01/23 05:14:33;;;;;;;19.80;15.77;;;9.10;70.40;;;-142.21;100.00;112049.66;6275357;22;20419;-79
2022/01/23 05:17:02;;;;;;;20.83;16.27;;;9.10;70.40;;;-142.21;100.00;112049.66;6276258;22;20502;-78
2022/01/23 05:19:32;;;;;;;19.93;15.90;;;9.20;70.20;;;-142.21;100.00;112049.66;6276201;22;20442;-79
2022/01/23 05:22:24;;;;;;;19.10;15.33;;;9.20;70.10;;;-142.21;100.00;112049.66;6276052;22;20415;-78
2022/01/23 05:24:56;;;;;;;18.33;15.73;;;9.20;70.30;;;-142.21;100.00;112049.66;6276249;22;20423;-78
2022/01/23 05:27:27;;;;;;;21.13;17.57;;;9.10;70.50;;;-142.21;100.00;112049.66;6276937;22;20418;-77
2022/01/23 05:29:57;;;;;;;18.70;15.87;;;9.20;70.60;;;-142.21;100.00;112049.66;6274656;22;20396;-77
2022/01/23 05:32:34;;;;;;;21.83;16.27;;;9.10;70.40;;;-142.21;100.00;112049.66;6276902;22;20417;-78
2022/01/23 05:35:13;;;;;;;17.57;15.60;;;9.20;70.20;;;-142.21;100.00;112049.66;6276668;22;20442;-78
2022/01/23 05:37:41;;;;;;;19.10;15.57;;;9.20;70.10;;;-142.21;100.00;112049.66;6283529;22;20418;-78
2022/01/23 05:40:14;;;;;;;18.43;15.43;;;9.20;70.00;;;-142.21;100.00;112049.66;6303797;22;20417;-79
2022/01/23 05:42:41;;;;;;;18.43;14.90;;;9.20;69.90;;;-142.21;100.00;112049.66;6295913;22;20968;-78
2022/01/23 05:45:10;;;;;;;18.93;15.40;;;9.20;69.80;;;-142.21;100.00;112049.66;6274692;22;20950;-79
2022/01/23 05:47:38;;;;;;;16.47;14.23;;;9.20;70.00;;;-142.21;100.00;112049.66;6276363;22;20501;-78
2022/01/23 05:50:07;;;;;;;19.83;15.80;;;9.20;69.80;;;-142.21;100.00;112049.66;6275495;22;20949;-79
2022/01/23 05:52:36;;;;;;;21.67;15.57;;;9.20;70.00;;;-142.21;100.00;112049.66;6276079;22;20473;-78
2022/01/23 05:55:05;;;;;;;22.60;16.63;;;9.20;69.80;;;-142.21;100.00;112049.66;6275017;22;20469;-78
2022/01/23 05:57:33;;;;;;;18.43;15.70;;;9.10;70.10;;;-142.21;100.00;112049.66;6276671;22;20442;-78
2022/01/23 06:00:00;;;;;;;20.87;16.40;;;9.20;70.00;;;-142.21;100.00;112049.66;6275888;22;20895;-79
2022/01/23 06:02:27;;;;;;;19.30;15.83;;;9.20;70.00;;;-142.21;100.00;112049.66;6275364;22;20419;-79
2022/01/23 06:04:54;;;;;;;21.63;16.87;;;9.10;69.70;;;-142.21;100.00;112049.66;6276226;22;20436;-79
2022/01/23 06:07:22;;;;;;;20.43;17.73;;;9.10;69.60;;;-142.21;100.00;112049.66;6275209;22;20423;-79
2022/01/23 06:09:51;;;;;;;20.20;15.90;;;9.10;69.80;;;-142.21;100.00;112049.66;6276502;22;20786;-79
2022/01/23 06:12:19;;;;;;;20.27;16.73;;;9.10;70.20;;;-142.21;100.00;112049.66;6275903;22;20419;-79
2022/01/23 06:14:46;;;;;;;20.57;17.77;;;9.10;70.30;;;-142.21;100.00;112049.66;6275542;22;20780;-80
2022/01/23 06:17:14;;;;;;;20.03;16.50;;;9.10;70.20;;;-142.21;100.00;112049.66;6276281;22;20454;-79
2022/01/23 06:19:41;;;;;;;21.07;17.43;;;9.10;70.10;;;-142.21;100.00;112049.66;6275650;22;20493;-79
2022/01/23 06:22:09;;;;;;;22.83;17.20;;;9.10;70.10;;;-142.21;100.00;112049.66;6276175;22;20909;-79
2022/01/23 06:24:44;;;;;;;20.63;16.70;;;9.10;70.10;;;-142.21;100.00;112049.66;6275565;22;20406;-79
2022/01/23 06:27:13;;;;;;;21.03;16.00;;;9.10;69.80;;;-142.21;100.00;112049.66;6275932;22;20401;-79
2022/01/23 06:29:45;;;;;;;20.60;16.60;;;9.20;70.00;;;-142.21;100.00;112049.66;6275179;22;20411;-79
2022/01/23 06:32:13;;;;;;;18.00;16.10;;;9.20;70.30;;;-142.21;100.00;112049.66;6277157;22;20410;-78
2022/01/23 06:34:42;;;;;;;20.37;17.03;;;9.10;70.20;;;-142.21;100.00;112049.66;6248252;22;20482;-77
2022/01/23 06:37:10;;;;;;;19.23;16.27;;;9.10;70.10;;;-142.21;100.00;112049.66;6275798;22;20447;-77
2022/01/23 06:39:37;;;;;;;18.33;15.50;;;9.10;70.00;;;-142.21;100.00;112049.66;6275835;22;20453;-80
2022/01/23 06:42:06;;;;;;;19.40;15.93;;;9.00;70.20;;;-142.21;100.00;112049.66;6275640;22;20810;-80
2022/01/23 06:44:34;;;;;;;19.27;14.97;;;9.00;70.40;;;-142.21;100.00;112049.66;6275657;22;20418;-76
2022/01/23 06:47:02;;;;;;;19.80;15.27;;;9.00;70.60;;;-142.21;100.00;112049.66;6274402;22;20439;-76
2022/01/23 06:49:29;;;;;;;17.33;15.23;;;8.90;70.80;;;-142.21;100.00;112049.66;6275735;22;20387;-78
2022/01/23 06:51:57;;;;;;;19.10;15.30;;;9.00;71.00;;;-142.21;100.00;112049.66;6274492;22;20782;-77
2022/01/23 06:54:24;;;;;;;17.97;15.60;;;9.00;70.90;;;-142.21;100.00;112049.66;6275696;22;20411;-77
2022/01/23 06:56:51;;;;;;;18.07;14.67;;;9.00;70.50;;;-142.21;100.00;112049.66;6275223;22;20442;-76
2022/01/23 06:59:18;;;;;;;19.93;16.00;;;9.10;70.30;;;-142.21;100.00;112049.66;6275707;22;20414;-76
2022/01/23 07:01:47;;;;;;;20.00;15.77;;;9.10;70.20;;;-142.21;100.00;112049.66;6274920;22;20415;-75
2022/01/23 07:04:15;;;;;;;17.50;14.90;;;9.10;70.10;;;-142.21;100.00;112049.66;6274732;22;20465;-76
2022/01/23 07:06:42;;;;;;;17.33;15.50;;;9.10;70.30;;;-142.21;100.00;112049.66;6275183;22;20431;-76
2022/01/23 07:09:10;;;;;;;18.87;15.80;;;9.10;70.30;;;-142.21;100.00;112049.66;6274477;22;20476;-76
2022/01/23 07:11:37;;;;;;;20.40;15.87;;;9.10;70.50;;;-142.21;100.00;112049.66;6274746;22;20418;-76
2022/01/23 07:14:05;;;;;;;19.63;15.70;;;9.00;70.50;;;-142.21;100.00;112049.66;6275292;22;20410;-76
2022/01/23 07:16:32;;;;;;;18.60;15.63;;;9.00;70.50;;;-142.21;100.00;112049.66;6274816;22;20443;-76
2022/01/23 07:19:01;;;;;;;17.80;14.60;;;9.00;70.50;;;-142.21;100.00;112049.66;6275290;22;20476;-76
2022/01/23 07:21:28;;;;;;;19.67;15.60;;;9.00;70.40;;;-142.21;100.00;112049.66;6274785;22;20407;-77
2022/01/23 07:23:55;;;;;;;20.50;15.87;;;9.00;70.40;;;-142.21;100.00;112049.66;6274999;22;20419;-77
2022/01/23 07:26:26;;;;;;;22.23;16.30;;;9.00;70.40;;;-142.21;100.00;112049.66;6274474;22;20411;-77
2022/01/23 07:28:56;;;;;;;19.10;14.63;;;9.00;70.60;;;-142.21;100.00;112049.66;6274349;22;20422;-76
2022/01/23 07:31:43;;;;;;;20.53;15.80;;;9.00;70.80;;;-142.21;100.00;112049.66;6273997;22;20461;-78
2022/01/23 07:34:14;;;;;;;18.10;14.13;;;9.00;70.50;;;-142.21;100.00;112049.66;6275168;22;20899;-77
2022/01/23 07:36:41;;;;;;;18.03;15.27;;;9.00;70.40;;;-142.21;100.00;112049.66;6273471;22;20489;-77
2022/01/23 07:39:09;;;;;;;17.33;14.37;;;9.00;70.20;;;-142.21;100.00;112049.66;6274822;22;20468;-77
2022/01/23 07:41:36;;;;;;;19.30;15.00;;;8.90;70.40;;;-142.21;100.00;112049.66;6274070;22;20415;-77
2022/01/23 07:44:04;;;;;;;15.50;13.80;;;8.90;70.60;;;-142.21;100.00;112049.66;6275163;22;20407;-77
2022/01/23 07:46:32;;;;;;;17.97;14.03;;;8.90;71.00;;;-142.21;100.00;112049.66;6274007;22;20430;-78
2022/01/23 07:48:59;;;;;;;17.87;15.33;;;8.90;71.20;;;-142.21;100.00;112049.66;6274390;22;20880;-77
2022/01/23 07:51:28;;;;;;;17.97;14.60;;;8.80;71.20;;;-142.21;100.00;112049.66;6274823;22;20466;-77
2022/01/23 07:53:55;;;;;;;17.83;14.17;;;8.80;71.40;;;-142.21;100.00;112049.66;6274309;22;20472;-78
2022/01/23 07:56:22;;;;;;;17.87;15.30;;;8.90;71.30;;;-142.21;100.00;112049.66;6274969;22;20943;-77
2022/01/23 07:58:50;;;;;;;19.63;16.33;;;8.90;71.10;;;-142.21;100.00;112049.66;6273896;22;20464;-77
2022/01/23 08:01:17;;;;;;;19.70;15.73;;;9.00;71.00;;;-142.21;100.00;112049.66;6274529;22;20410;-77
2022/01/23 08:03:44;;;;;;;17.00;14.27;;;9.00;71.00;;;-142.21;100.00;112049.66;6273752;22;20489;-78
2022/01/23 08:06:12;;;;;;;19.07;15.13;;;9.00;70.90;;;-142.21;100.00;112049.66;6275320;22;20954;-76
2022/01/23 08:08:41;;;;;;;20.43;16.40;;;9.10;70.90;;;-142.21;100.00;112049.66;6274155;22;20423;-77
2022/01/23 08:11:10;;;;;;;19.27;15.00;;;9.10;70.70;;;-142.21;100.00;112049.66;6273851;22;20551;-77
2022/01/23 08:13:37;;;;;;;18.50;15.13;;;9.10;70.90;;;-142.21;100.00;112049.66;6275077;22;20423;-77
2022/01/23 08:16:05;;;;;;;16.90;13.43;;;9.10;71.00;;;-142.21;100.00;112049.66;6274711;22;20443;-77
2022/01/23 08:18:33;;;;;;;20.13;16.97;;;9.10;70.90;;;-142.21;100.00;112049.66;6274715;22;20422;-76
2022/01/23 08:21:00;;;;;;;18.47;14.93;;;9.10;70.50;;;-142.21;100.00;112049.66;6273798;22;20418;-77
2022/01/23 08:23:27;;;;;;;19.13;15.37;;;9.10;71.50;;;-142.21;100.00;112049.66;6274955;22;20453;-75
2022/01/23 08:25:56;;;;;;;18.40;15.03;;;9.20;70.70;;;-142.21;100.00;112049.66;6274607;22;20415;-76
2022/01/23 08:28:24;;;;;;;20.37;14.87;;;9.20;70.90;;;-142.21;100.00;112049.66;6274436;22;20411;-76
2022/01/23 08:30:51;;;;;;;18.03;14.77;;;9.20;70.80;;;-142.21;100.00;112049.66;6274723;22;20407;-75
2022/01/23 08:33:18;;;;;;;17.70;15.33;;;9.20;70.50;;;-142.21;100.00;112049.66;6274454;22;20411;-77
2022/01/23 08:35:46;;;;;;;18.57;15.33;;;9.20;70.50;;;-142.21;100.00;112049.66;6274223;22;20446;-77
2022/01/23 08:38:14;;;;;;;21.53;16.70;;;9.20;70.60;;;-142.21;100.00;112049.66;6275461;22;20423;-77
2022/01/23 08:41:49;;;;;;;19.00;15.57;;;9.20;71.00;;;-142.21;100.00;112049.66;6276671;22;20437;-76
2022/01/23 08:43:38;;;;;;;19.37;15.83;;;9.20;71.40;;;-142.21;100.00;112049.66;6276761;22;20489;-76
2022/01/23 08:46:06;;;;;;;18.73;15.93;;;9.20;71.50;;;-142.21;100.00;112049.66;6276816;22;20411;-77
2022/01/23 08:48:34;;;;;;;22.77;17.33;;;9.30;71.50;;;-142.21;100.00;112049.66;6275917;22;20923;-78
2022/01/23 08:51:01;;;;;;;18.77;15.60;;;9.20;71.00;;;-142.21;100.00;112049.66;6276557;22;20410;-77
2022/01/23 08:53:28;;;;;;;20.77;16.77;;;9.30;71.00;;;-142.21;100.00;112049.66;6275198;22;20461;-77
2022/01/23 08:55:55;;;;;;;18.63;15.23;;;9.30;70.70;;;-142.21;100.00;112049.66;6275911;22;20467;-77
2022/01/23 08:58:23;;;;;;;19.37;16.33;;;9.30;70.50;;;-142.21;100.00;112049.66;6275506;22;20415;-76
2022/01/23 09:00:52;;;;;;;19.20;16.33;;;9.30;70.70;;;-142.21;100.00;112049.66;6276689;22;20469;-77
2022/01/23 09:03:19;;;;;;;21.07;17.53;;;9.40;70.60;;;-142.21;100.00;112049.66;6276366;22;20427;-76
2022/01/23 09:05:46;;;;;;;24.80;20.93;;;9.40;70.10;;;-142.21;100.00;112049.66;6276254;22;20411;-79
2022/01/23 09:08:14;;;;;;;27.47;21.67;;;9.50;69.90;;;-142.21;100.00;112049.66;6276159;22;20418;-78
2022/01/23 09:10:52;;;;;;;23.37;20.07;;;9.40;70.10;;;-142.21;100.00;112049.66;6275248;22;20415;-78
2022/01/23 09:13:31;;;;;;;23.17;19.53;;;9.50;70.00;;;-142.21;100.00;112049.66;6276889;22;20881;-75
2022/01/23 09:16:00;;;;;;;23.30;19.27;;;9.50;69.90;;;-142.21;100.00;112049.66;6276855;22;20855;-81
2022/01/23 09:18:27;;;;;;;22.23;18.97;;;9.60;70.00;;;-142.21;100.00;112049.66;6277579;22;20411;-81
2022/01/23 09:20:57;;;;;;;22.33;19.70;;;9.70;69.80;;;-142.21;100.00;112049.66;6276140;22;20423;-75
2022/01/23 09:23:26;;;;;;;22.00;18.67;;;9.70;69.40;;;-142.21;100.00;112049.66;6276654;22;20480;-81
2022/01/23 09:25:56;;;;;;;21.00;17.43;;;9.70;69.00;;;-142.21;100.00;112049.66;6276001;22;20959;-78
2022/01/23 09:28:30;;;;;;;18.87;16.47;;;9.80;69.40;;;-142.21;100.00;112049.66;6278058;22;20372;-79
2022/01/23 09:31:00;;;;;;;20.63;17.27;;;9.80;69.20;;;-142.21;100.00;112049.66;6276650;22;20429;-79
2022/01/23 09:33:28;;;;;;;19.90;16.43;;;9.80;69.20;;;-142.21;100.00;112049.66;6277172;22;20911;-82
2022/01/23 09:35:55;;;;;;;22.50;18.20;;;9.90;69.10;;;-142.21;100.00;112049.66;6276257;22;20411;-79
2022/01/23 09:38:23;;;;;;;18.97;16.60;;;9.90;69.30;;;-142.21;100.00;112049.66;6278262;22;20422;-79
2022/01/23 09:40:59;;;;;;;21.33;17.87;;;9.90;69.10;;;-142.21;100.00;112049.66;6276682;22;20443;-80
2022/01/23 09:43:29;;;;;;;19.60;16.23;;;9.90;69.10;;;-142.21;100.00;112049.66;6277401;22;20425;-81
2022/01/23 09:45:56;;;;;;;18.33;15.83;;;10.00;67.70;;;-142.21;100.00;112049.66;6276665;22;20410;-82
2022/01/23 09:48:26;;;;;;;21.83;18.10;;;10.00;67.30;;;-142.21;100.00;112049.66;6277013;22;20937;-80
2022/01/23 09:50:53;;;;;;;21.40;17.57;;;10.00;67.20;;;-142.21;100.00;112049.66;6275537;22;20415;-76
2022/01/23 09:53:23;;;;;;;22.87;17.60;;;10.00;67.20;;;-142.21;100.00;112049.66;6276755;22;20736;-77
2022/01/23 09:56:02;;;;;;;21.20;16.77;;;10.10;67.50;;;-142.21;100.00;112049.66;6276919;22;20422;-78
2022/01/23 09:58:30;;;;;;;23.40;18.77;;;10.10;67.40;;;-142.21;100.00;112049.66;6277898;22;20425;-81
2022/01/23 10:01:00;;;;;;;22.47;17.30;;;10.00;67.30;;;-142.21;100.00;112049.66;6278678;22;20442;-81
2022/01/23 10:03:30;;;;;;;22.63;17.90;;;10.10;67.70;;;-142.21;100.00;112049.66;6278048;22;20442;-80
2022/01/23 10:05:58;;;;;;;21.53;18.70;;;10.10;67.30;;;-142.21;100.00;112049.66;6279486;22;20414;-82
2022/01/23 10:08:29;;;;;;;25.33;20.57;;;10.20;67.50;;;-142.21;100.00;112049.66;6279204;22;20419;-81
2022/01/23 10:10:57;;;;;;;20.27;17.47;;;10.20;67.30;;;-142.21;100.00;112049.66;6287901;22;20405;-82
2022/01/23 10:13:27;;;;;;;20.80;17.97;;;10.30;67.50;;;-142.21;100.00;112049.66;6303689;22;20463;-82
2022/01/23 10:15:54;;;;;;;21.87;18.07;;;10.30;67.50;;;-142.21;100.00;112049.66;6298195;22;20429;-81
2022/01/23 10:18:23;;;;;;;21.47;19.17;;;10.30;67.00;;;-142.21;100.00;112049.66;6278206;22;20934;-82
2022/01/23 10:20:52;;;;;;;22.60;18.90;;;10.30;66.70;;;-142.21;100.00;112049.66;6278601;22;20417;-84
2022/01/23 10:23:20;;;;;;;19.90;17.37;;;10.40;67.00;;;-142.21;100.00;112049.66;6278453;22;20411;-83
2022/01/23 10:25:49;;;;;;;20.73;18.50;;;10.40;66.80;;;-142.21;100.00;112049.66;6277551;22;20513;-82
2022/01/23 10:28:20;;;;;;;20.93;17.77;;;10.50;66.90;;;-142.21;100.00;112049.66;6276521;22;20745;-79
2022/01/23 10:30:51;;;;;;;20.83;17.53;;;10.50;66.60;;;-142.21;100.00;112049.66;6275731;22;20411;-75
2022/01/23 10:33:21;;;;;;;22.33;18.07;;;10.50;66.70;;;-142.21;100.00;112049.66;6275310;22;20505;-76
2022/01/23 10:36:04;;;;;;;23.07;19.20;;;10.50;66.30;;;-142.21;100.00;112049.66;6275702;22;20449;-75
2022/01/23 10:38:36;;;;;;;22.53;18.00;;;10.50;66.00;;;-142.21;100.00;112049.66;6275128;22;20499;-77
2022/01/23 10:41:27;;;;;;;23.10;17.80;;;10.50;66.20;;;-142.21;100.00;112049.66;6276298;22;20372;-77
2022/01/23 10:47:33;;;;;;;21.57;18.27;;;10.50;66.00;;;-142.21;100.00;112049.66;6275334;22;20467;-78
2022/01/23 10:50:09;;;;;;;23.10;18.33;;;10.60;65.70;;;-142.21;100.00;112049.66;6274849;22;20435;-78
2022/01/23 10:52:42;;;;;;;21.27;18.43;;;10.50;65.70;;;-142.21;100.00;112049.66;6275634;22;20417;-80
2022/01/23 10:55:27;;;;;;;21.93;19.23;;;10.60;66.00;;;-142.21;100.00;112049.66;6276595;22;20457;-83
2022/01/23 10:58:00;;;;;;;22.80;19.17;;;10.60;65.80;;;-142.21;100.00;112049.66;6276940;22;20442;-83
2022/01/23 11:00:31;;;;;;;23.63;18.53;;;10.60;66.00;;;-142.21;100.00;112049.66;6275184;22;20498;-79
2022/01/23 11:03:02;;;;;;;24.00;20.63;;;10.60;65.90;;;-142.21;100.00;112049.66;6275792;22;20407;-82
2022/01/23 11:05:40;;;;;;;23.10;19.63;;;10.50;65.60;;;-142.21;100.00;112049.66;6273518;22;20919;-78
2022/01/23 11:08:23;;;;;;;23.63;19.90;;;10.50;66.10;;;-142.21;100.00;112049.66;6276021;22;20407;-79
2022/01/23 11:10:56;;;;;;;23.27;20.20;;;10.60;66.00;;;-142.21;100.00;112049.66;6275676;22;20422;-82
2022/01/23 11:18:58;;;;;;;24.07;19.73;;;10.70;65.40;;;-142.21;100.00;112049.66;6276250;22;20410;-80
2022/01/23 11:21:25;;;;;;;23.63;18.13;;;10.80;65.40;;;-142.21;100.00;112049.66;6276390;22;20396;-77
2022/01/23 11:23:58;;;;;;;26.63;20.03;;;10.80;65.10;;;-142.21;100.00;112049.66;6275369;22;20460;-76
2022/01/23 11:26:29;;;;;;;22.17;18.07;;;10.80;65.20;;;-142.21;100.00;112049.66;6276125;22;20413;-76
2022/01/23 11:28:56;;;;;;;23.53;18.97;;;10.90;65.50;;;-142.21;100.00;112049.66;6275870;22;20403;-78
2022/01/23 11:31:24;;;;;;;23.73;19.73;;;11.00;65.40;;;-142.21;100.00;112049.66;6275284;22;20418;-80
2022/01/23 11:33:52;;;;;;;20.47;18.07;;;11.00;64.80;;;-142.21;100.00;112049.66;6275289;22;20403;-76
2022/01/23 11:36:21;;;;;;;23.70;19.80;;;11.00;65.10;;;-142.21;100.00;112049.66;6275873;22;20449;-77
2022/01/23 11:38:51;;;;;;;22.67;19.50;;;11.10;64.60;;;-142.21;100.00;112049.66;6275335;22;20446;-84
2022/01/23 11:55:32;;;;;;;27.60;19.60;;;11.20;64.00;;;-142.21;100.00;112049.66;6275664;22;20395;-77
2022/01/23 11:58:03;;;;;;;23.37;19.30;;;11.30;64.80;;;-142.21;100.00;112049.66;6275095;22;20438;-78
2022/01/23 12:00:33;;;;;;;21.67;19.27;;;11.40;64.60;;;-142.21;100.00;112049.66;6275257;22;20419;-76
2022/01/23 12:03:15;;;;;;;22.27;19.43;;;11.40;64.50;;;-142.21;100.00;112049.66;6274918;22;20460;-79
2022/01/23 12:05:46;;;;;;;22.93;18.93;;;11.40;64.00;;;-142.21;100.00;112049.66;6277270;22;20379;-78
2022/01/23 12:08:32;;;;;;;19.10;17.07;;;11.40;64.30;;;-142.21;100.00;112049.66;6274532;22;20415;-78
2022/01/23 12:17:39;;;;;;;22.40;18.40;;;11.50;63.60;;;-142.21;100.00;112049.66;6231239;22;20446;-84